Time;durP1;ratioP1;P1;durP2;ratioP2;P2;SDS_P1;SDS_P2;PMS_P1;PMS_P2;Temp;Humidity;BMP_temperature;BMP_pressure;BME280_temperature;BME280_humidity;BME280_pressure;Samples;Min_cycle;Max_cycle;Signal;HPM_P1;HPM_P2
2022/07/15 00:10:14;;;;;;;6.20;2.65;;;;;;;18.74;65.93;100690.03;20750648;28;20499;-78
2022/07/15 00:20:15;;;;;;;5.25;2.42;;;;;;;18.18;68.95;100686.22;20750945;28;20049;-79
2022/07/15 00:30:17;;;;;;;8.60;3.22;;;;;;;17.77;73.06;100700.31;20750333;28;20471;-77
2022/07/15 00:40:18;;;;;;;6.60;2.45;;;;;;;17.68;72.82;100688.31;20748781;28;20050;-77
2022/07/15 00:50:20;;;;;;;5.00;2.50;;;;;;;17.40;76.92;100692.03;20752032;28;20507;-77
2022/07/15 01:00:21;;;;;;;4.55;2.75;;;;;;;17.29;77.15;100693.38;20751497;28;20058;-79
2022/07/15 01:10:23;;;;;;;5.25;2.75;;;;;;;16.90;80.78;100681.59;20751340;28;20049;-78
2022/07/15 01:20:25;;;;;;;7.07;3.22;;;;;;;16.73;82.87;100684.03;20748215;28;20065;-77
2022/07/15 01:30:26;;;;;;;5.97;2.65;;;;;;;16.68;81.34;100681.50;20746712;28;20046;-79
2022/07/15 01:40:28;;;;;;;6.82;3.00;;;;;;;16.56;84.36;100687.22;20752368;28;20157;-78
2022/07/15 01:50:29;;;;;;;8.88;3.30;;;;;;;16.44;83.99;100677.09;20754780;28;20129;-80
2022/07/15 02:00:30;;;;;;;6.07;3.40;;;;;;;16.37;84.78;100687.00;20750985;28;20042;-79
2022/07/15 02:10:41;;;;;;;8.35;3.10;;;;;;;16.29;84.96;100683.81;20742803;28;20046;-79
2022/07/15 02:20:42;;;;;;;6.57;3.03;;;;;;;15.92;87.33;100681.53;20755712;28;20121;-78
2022/07/15 02:30:43;;;;;;;8.20;3.30;;;;;;;15.97;84.59;100682.25;20764884;28;20077;-79
2022/07/15 02:40:45;;;;;;;7.65;3.55;;;;;;;16.10;84.64;100686.22;20784808;28;20069;-78
2022/07/15 02:50:46;;;;;;;6.50;2.70;;;;;;;16.21;83.35;100679.69;20787070;28;20056;-79
2022/07/15 03:00:48;;;;;;;5.90;3.00;;;;;;;16.25;84.49;100689.25;20764052;28;20070;-79
2022/07/15 03:10:49;;;;;;;8.88;3.00;;;;;;;16.27;84.38;100706.75;20747969;28;20530;-79
2022/07/15 03:20:50;;;;;;;6.18;2.92;;;;;;;16.11;87.21;100721.41;20744100;28;20060;-78
2022/07/15 03:30:52;;;;;;;6.60;2.95;;;;;;;16.07;87.73;100719.78;20756515;28;20144;-78
2022/07/15 03:40:54;;;;;;;6.45;3.00;;;;;;;15.81;90.57;100720.63;20738552;28;20104;-79
2022/07/15 03:50:55;;;;;;;5.85;3.10;;;;;;;15.88;90.92;100719.50;20739278;28;20141;-78
2022/07/15 04:00:57;;;;;;;7.10;3.72;;;;;;;15.80;90.67;100738.22;20736401;28;20521;-79
2022/07/15 04:10:58;;;;;;;8.68;3.95;;;;;;;15.63;92.02;100738.78;20737114;28;20053;-79
2022/07/15 04:21:00;;;;;;;8.52;3.15;;;;;;;15.77;91.28;100742.78;20769003;28;20042;-79
2022/07/15 04:31:01;;;;;;;8.90;3.70;;;;;;;15.84;89.62;100755.72;20777914;28;20061;-78
2022/07/15 04:41:03;;;;;;;12.35;3.60;;;;;;;16.45;82.25;100757.25;20762290;28;20077;-78
2022/07/15 04:51:04;;;;;;;8.98;3.83;;;;;;;16.72;80.12;100761.63;20750932;28;20407;-79
2022/07/15 05:01:05;;;;;;;10.23;3.75;;;;;;;16.74;80.56;100765.06;20748081;28;20045;-78
2022/07/15 05:11:07;;;;;;;7.30;3.45;;;;;;;16.48;83.51;100768.59;20751667;28;20573;-78
2022/07/15 05:21:08;;;;;;;10.07;3.50;;;;;;;16.80;80.55;100767.50;20749861;28;20041;-78
2022/07/15 05:31:10;;;;;;;9.15;2.75;;;;;;;16.87;78.33;100776.09;20749889;28;20068;-79
2022/07/15 05:41:12;;;;;;;7.85;2.47;;;;;;;17.04;76.10;100789.53;20748907;28;20057;-79
2022/07/15 05:51:14;;;;;;;8.15;2.50;;;;;;;17.34;71.73;100800.81;20757358;28;20424;-79
2022/07/15 06:01:16;;;;;;;9.40;2.45;;;;;;;17.51;73.38;100794.88;20756900;28;20550;-78
2022/07/15 06:11:18;;;;;;;10.25;2.90;;;;;;;17.79;69.66;100793.84;20749073;28;20050;-79
2022/07/15 06:21:19;;;;;;;4.75;1.95;;;;;;;18.00;66.88;100794.75;20741811;28;20550;-78
2022/07/15 06:31:21;;;;;;;5.88;2.17;;;;;;;18.47;65.37;100800.78;20739497;28;20068;-79
2022/07/15 06:41:22;;;;;;;6.90;2.15;;;;;;;18.77;61.43;100801.28;20736992;28;20050;-77
2022/07/15 06:51:30;;;;;;;8.07;2.42;;;;;;;18.94;60.21;100800.56;20737885;28;20050;-76
2022/07/15 07:01:32;;;;;;;9.68;2.25;;;;;;;19.22;57.27;100787.78;20733958;28;20422;-76
2022/07/15 07:11:33;;;;;;;7.65;1.83;;;;;;;19.46;55.75;100782.28;20696280;28;20047;-76
2022/07/15 07:21:35;;;;;;;7.28;2.05;;;;;;;19.80;54.53;100778.91;20665230;28;20049;-75
2022/07/15 07:31:36;;;;;;;6.97;2.05;;;;;;;20.28;52.70;100776.59;20689984;28;20046;-76
2022/07/15 07:41:38;;;;;;;5.38;1.70;;;;;;;20.31;50.58;100784.41;20677024;28;20129;-76
2022/07/15 07:51:41;;;;;;;7.28;2.00;;;;;;;20.68;50.90;100772.78;20684861;28;20045;-77
2022/07/15 08:01:42;;;;;;;3.40;1.50;;;;;;;20.57;50.84;100778.69;20741630;28;20056;-75
2022/07/15 08:11:44;;;;;;;6.45;1.88;;;;;;;20.89;48.71;100768.16;20742089;28;20141;-75
2022/07/15 08:21:46;;;;;;;5.78;1.58;;;;;;;20.75;48.96;100785.72;20741261;28;20053;-74
2022/07/15 08:31:48;;;;;;;6.95;1.70;;;;;;;21.19;49.29;100784.31;20739903;28;20422;-75
2022/07/15 08:41:49;;;;;;;5.20;1.55;;;;;;;21.44;48.12;100781.19;20738873;28;20084;-77
2022/07/15 08:51:51;;;;;;;4.07;1.52;;;;;;;21.42;46.25;100791.09;20741321;28;20675;-78
2022/07/15 09:01:59;;;;;;;4.72;1.50;;;;;;;21.61;44.87;100785.63;20723052;28;20081;-76
2022/07/15 09:12:00;;;;;;;3.78;1.40;;;;;;;22.22;46.11;100777.66;20693520;28;20647;-77
2022/07/15 09:22:12;;;;;;;6.13;1.88;;;;;;;22.36;43.21;100784.00;20693750;28;20050;-76
2022/07/15 09:42:34;;;;;;;4.50;1.58;;;;;;;22.71;40.73;100776.59;20653643;28;20133;-76
2022/07/15 09:52:35;;;;;;;5.22;1.42;;;;;;;22.87;41.32;100776.53;20652690;28;20046;-75
2022/07/15 10:02:36;;;;;;;6.72;1.40;;;;;;;22.99;40.64;100778.44;20652182;28;20141;-77
2022/07/15 10:12:38;;;;;;;8.70;1.17;;;;;;;23.02;40.38;100778.28;20676358;28;20057;-75
2022/07/15 10:22:40;;;;;;;6.95;1.65;;;;;;;22.69;39.69;100766.00;20730753;28;20514;-78
2022/07/15 10:32:41;;;;;;;5.90;1.88;;;;;;;23.35;38.92;100759.28;20730091;28;20049;-76
2022/07/15 10:42:42;;;;;;;6.20;1.73;;;;;;;23.28;37.10;100750.81;20730136;28;20144;-76
2022/07/15 10:52:44;;;;;;;6.88;1.27;;;;;;;23.99;37.27;100738.25;20730117;28;20550;-76
2022/07/15 11:02:45;;;;;;;4.20;1.38;;;;;;;23.73;36.58;100726.59;20728564;28;20054;-76
2022/07/15 11:12:47;;;;;;;6.60;2.03;;;;;;;24.02;36.99;100722.00;20694281;28;20050;-79
2022/07/15 11:22:48;;;;;;;6.65;2.15;;;;;;;24.30;36.19;100716.50;20716304;28;20050;-76
2022/07/15 11:32:50;;;;;;;4.65;1.40;;;;;;;24.15;36.80;100708.66;20736590;28;20057;-75
2022/07/15 11:53:11;;;;;;;7.18;2.17;;;;;;;24.30;35.94;100697.78;20743061;28;20089;-76
2022/07/15 12:03:13;;;;;;;5.68;1.90;;;;;;;24.42;35.03;100698.75;20741835;28;20053;-75
2022/07/15 12:13:14;;;;;;;6.60;1.85;;;;;;;24.49;34.93;100696.53;20741065;28;20528;-75
2022/07/15 12:23:15;;;;;;;6.75;2.20;;;;;;;24.38;35.86;100701.75;20741489;28;20069;-75
2022/07/15 12:33:17;;;;;;;4.75;1.70;;;;;;;24.24;36.81;100703.53;20739340;28;20061;-76
2022/07/15 12:43:18;;;;;;;6.10;1.85;;;;;;;24.23;36.57;100691.09;20738020;28;20054;-74
2022/07/15 12:53:20;;;;;;;4.65;1.80;;;;;;;24.86;33.71;100691.28;20738066;28;20414;-75
2022/07/15 13:03:22;;;;;;;3.75;1.70;;;;;;;24.97;34.81;100686.88;20736934;28;20061;-74
2022/07/15 13:13:25;;;;;;;6.18;1.98;;;;;;;24.59;36.04;100691.41;20703485;28;20076;-74
2022/07/15 13:23:27;;;;;;;8.85;1.95;;;;;;;24.36;36.95;100688.50;20654680;28;20056;-77
2022/07/15 13:33:28;;;;;;;6.22;1.83;;;;;;;24.73;35.53;100689.47;20653148;28;20495;-75
2022/07/15 13:43:29;;;;;;;3.67;2.10;;;;;;;24.87;35.21;100683.16;20653284;28;20050;-74
2022/07/15 13:53:31;;;;;;;7.88;2.00;;;;;;;24.68;35.87;100678.22;20652648;28;20054;-73
2022/07/15 14:03:32;;;;;;;6.55;2.17;;;;;;;24.55;36.04;100672.00;20651489;28;20050;-75
2022/07/15 14:13:34;;;;;;;5.22;1.85;;;;;;;24.52;36.39;100680.25;20685033;28;20513;-74
2022/07/15 14:23:35;;;;;;;5.47;1.83;;;;;;;25.03;35.16;100666.81;20731107;28;20062;-73
2022/07/15 14:33:37;;;;;;;6.15;1.90;;;;;;;24.82;35.12;100656.69;20730418;28;20477;-78
2022/07/15 14:43:38;;;;;;;7.03;2.00;;;;;;;25.43;34.36;100637.16;20729063;28;20112;-74
2022/07/15 14:53:40;;;;;;;5.07;1.88;;;;;;;25.07;35.42;100641.56;20729373;28;20046;-72
2022/07/15 15:03:41;;;;;;;5.85;2.13;;;;;;;25.06;34.84;100645.19;20726865;28;20503;-73
2022/07/15 15:13:42;;;;;;;6.15;1.98;;;;;;;24.91;35.00;100651.63;20693681;28;20058;-74
2022/07/15 15:23:44;;;;;;;5.25;2.20;;;;;;;25.22;34.48;100647.63;20647526;28;20077;-73
2022/07/15 15:33:45;;;;;;;3.78;2.17;;;;;;;25.04;35.36;100653.31;20645574;28;20138;-73
2022/07/15 15:43:47;;;;;;;5.85;2.22;;;;;;;25.50;34.50;100646.47;20646458;28;20536;-75
2022/07/15 15:53:48;;;;;;;6.85;2.17;;;;;;;25.10;34.93;100652.03;20646205;28;20046;-73
2022/07/15 16:03:50;;;;;;;7.25;2.30;;;;;;;25.37;33.82;100634.94;20645004;28;20487;-73
2022/07/15 16:13:51;;;;;;;5.65;2.20;;;;;;;25.20;33.96;100631.66;20682273;28;20066;-73
2022/07/15 16:23:52;;;;;;;7.82;2.75;;;;;;;25.68;33.84;100614.72;20741271;28;20537;-73
2022/07/15 16:33:54;;;;;;;4.95;2.70;;;;;;;25.64;34.38;100616.78;20738840;28;20057;-73
2022/07/15 16:43:55;;;;;;;5.03;2.50;;;;;;;25.63;33.75;100611.53;20738818;28;20058;-73
2022/07/15 16:53:56;;;;;;;5.78;2.55;;;;;;;25.18;33.25;100622.88;20737721;28;20418;-75
2022/07/15 17:03:58;;;;;;;4.85;2.70;;;;;;;25.49;33.05;100615.25;20736377;28;20465;-74
2022/07/15 17:13:59;;;;;;;9.73;2.60;;;;;;;25.17;34.07;100621.16;20699722;28;20042;-73
2022/07/15 17:24:01;;;;;;;6.53;2.75;;;;;;;25.40;33.27;100608.75;20655429;28;20061;-76
2022/07/15 17:34:02;;;;;;;6.43;2.90;;;;;;;24.84;33.57;100619.06;20654248;28;20054;-74
2022/07/15 17:44:03;;;;;;;6.00;2.70;;;;;;;24.80;33.57;100620.25;20653756;28;20061;-73
2022/07/15 17:54:05;;;;;;;8.00;2.72;;;;;;;24.52;35.14;100629.38;20653633;28;20052;-74
2022/07/15 18:04:06;;;;;;;7.57;2.47;;;;;;;24.33;35.93;100635.97;20651229;28;20056;-72
2022/07/15 18:14:07;;;;;;;4.35;2.53;;;;;;;24.30;35.39;100646.94;20686247;28;20495;-75
2022/07/15 18:24:09;;;;;;;8.05;3.05;;;;;;;24.12;36.34;100652.69;20731662;28;20064;-72
2022/07/15 18:34:10;;;;;;;9.93;2.80;;;;;;;23.97;36.67;100636.72;20729817;28;20053;-75
2022/07/15 18:44:11;;;;;;;7.13;2.58;;;;;;;23.61;37.02;100657.84;20728232;28;20072;-75
2022/07/15 18:54:13;;;;;;;8.13;2.90;;;;;;;23.01;39.88;100656.38;20728949;28;20054;-75
2022/07/15 19:04:14;;;;;;;7.53;3.72;;;;;;;22.74;40.22;100656.25;20728302;28;20056;-74
2022/07/15 19:14:17;;;;;;;7.35;3.50;;;;;;;22.42;42.13;100667.13;20689255;28;20058;-80
2022/07/15 19:24:21;;;;;;;13.20;3.05;;;;;;;22.15;44.34;100669.63;20646885;28;20058;-75
2022/07/15 19:34:23;;;;;;;10.80;2.90;;;;;;;21.57;44.03;100682.81;20645298;28;20051;-74
2022/07/15 19:44:25;;;;;;;9.50;3.22;;;;;;;21.34;42.89;100692.09;20644972;28;20093;-74
2022/07/15 19:54:26;;;;;;;7.40;2.90;;;;;;;21.05;44.17;100720.28;20656697;28;20117;-74
2022/07/15 20:04:28;;;;;;;10.43;3.08;;;;;;;20.63;45.42;100724.28;20657863;28;20057;-76
2022/07/15 20:14:29;;;;;;;5.63;2.75;;;;;;;20.33;43.90;100740.00;20701428;28;20060;-74
2022/07/15 20:24:31;;;;;;;9.55;3.25;;;;;;;20.22;43.36;100752.03;20741320;28;20052;-74
2022/07/15 20:34:32;;;;;;;7.00;2.53;;;;;;;20.03;42.89;100748.56;20695787;28;20153;-75
2022/07/15 20:44:34;;;;;;;6.18;2.10;;;;;;;20.02;41.93;100746.81;20705762;28;20590;-74
2022/07/15 20:54:35;;;;;;;6.45;2.55;;;;;;;19.70;43.40;100757.25;20737961;28;20481;-74
2022/07/15 21:04:36;;;;;;;6.15;2.50;;;;;;;19.43;44.16;100772.66;20735641;28;20522;-74
2022/07/15 21:14:38;;;;;;;8.73;2.50;;;;;;;19.39;44.50;100772.84;20694657;28;20050;-74
2022/07/15 21:35:00;;;;;;;6.57;2.22;;;;;;;18.91;45.95;100776.81;20652972;28;20478;-75
2022/07/15 21:45:01;;;;;;;8.60;2.03;;;;;;;18.64;46.45;100787.66;20655932;28;20479;-75
2022/07/15 21:55:02;;;;;;;6.43;1.92;;;;;;;18.25;47.86;100799.94;20653441;28;20145;-74
2022/07/15 22:05:04;;;;;;;3.80;1.85;;;;;;;17.99;48.58;100801.84;20778857;22;20049;-69
2022/07/15 22:15:05;;;;;;;3.90;1.75;;;;;;;17.73;49.18;100805.53;20741177;28;20559;-69
2022/07/15 22:25:07;;;;;;;3.42;1.80;;;;;;;17.76;49.02;100805.41;20739024;28;20046;-67
2022/07/15 22:35:08;;;;;;;4.93;1.90;;;;;;;17.54;49.57;100810.66;20739180;28;20054;-68
2022/07/15 22:45:09;;;;;;;5.88;1.98;;;;;;;17.49;50.13;100817.91;20738549;28;20482;-69
2022/07/15 22:55:13;;;;;;;5.97;1.95;;;;;;;17.50;50.01;100814.34;20738077;28;20053;-67
2022/07/15 23:05:14;;;;;;;5.20;1.70;;;;;;;17.21;52.77;100822.50;20735730;28;20052;-67
2022/07/15 23:15:16;;;;;;;6.20;2.15;;;;;;;17.03;54.08;100829.31;20736980;28;20083;-70
2022/07/15 23:25:17;;;;;;;7.65;2.60;;;;;;;16.87;54.76;100819.25;20740165;28;20050;-66
2022/07/15 23:35:19;;;;;;;9.02;2.20;;;;;;;16.44;55.73;100834.84;20752009;28;20073;-67
2022/07/15 23:45:20;;;;;;;5.93;2.05;;;;;;;16.30;56.47;100837.91;20751972;28;20056;-67
2022/07/15 23:55:21;;;;;;;8.73;2.30;;;;;;;16.20;57.36;100831.22;20751614;28;20068;-69
